sensor_id;sensor_type;location;lat;lon;timestamp;pressure;altitude;pressure_sealevel;temperature;humidity
67345;BME280;54230;52.402;6.276;2022-09-16T00:00:00;101000.0;;;11.3;95.9
67345;BME280;54230;52.402;6.276;2022-09-16T00:05:00;101000.0;;;11.3;96.8
67345;BME280;54230;52.402;6.276;2022-09-16T00:10:00;100990.0;;;11.3;97.8
67345;BME280;54230;52.402;6.276;2022-09-16T00:15:00;100980.0;;;11.4;98.0
67345;BME280;54230;52.402;6.276;2022-09-16T00:20:00;100980.0;;;11.5;98.3
67345;BME280;54230;52.402;6.276;2022-09-16T00:25:00;100990.0;;;11.6;98.5
67345;BME280;54230;52.402;6.276;2022-09-16T00:30:00;100990.0;;;11.6;98.5
67345;BME280;54230;52.402;6.276;2022-09-16T00:35:00;100990.0;;;11.6;98.7
67345;BME280;54230;52.402;6.276;2022-09-16T00:40:00;100990.0;;;11.6;98.2
67345;BME280;54230;52.402;6.276;2022-09-16T00:45:01;100990.0;;;11.6;98.7
67345;BME280;54230;52.402;6.276;2022-09-16T00:50:04;100990.0;;;11.6;98.4
67345;BME280;54230;52.402;6.276;2022-09-16T00:55:03;101000.0;;;11.6;98.0
67345;BME280;54230;52.402;6.276;2022-09-16T01:00:00;101000.0;;;11.6;98.2
67345;BME280;54230;52.402;6.276;2022-09-16T01:05:02;101000.0;;;11.5;98.5
67345;BME280;54230;52.402;6.276;2022-09-16T01:10:00;101000.0;;;11.5;99.0
67345;BME280;54230;52.402;6.276;2022-09-16T01:15:00;101000.0;;;11.6;98.7
67345;BME280;54230;52.402;6.276;2022-09-16T01:20:21;101000.0;;;11.5;98.9
67345;BME280;54230;52.402;6.276;2022-09-16T01:25:06;100990.0;;;11.6;99.2
67345;BME280;54230;52.402;6.276;2022-09-16T01:30:12;101000.0;;;11.6;99.4
67345;BME280;54230;52.402;6.276;2022-09-16T01:35:04;100990.0;;;11.6;99.4
67345;BME280;54230;52.402;6.276;2022-09-16T01:40:06;100990.0;;;11.5;99.0
67345;BME280;54230;52.402;6.276;2022-09-16T01:45:07;100980.0;;;11.4;98.9
67345;BME280;54230;52.402;6.276;2022-09-16T01:50:03;100970.0;;;11.4;99.2
67345;BME280;54230;52.402;6.276;2022-09-16T01:55:01;100970.0;;;11.3;99.4
67345;BME280;54230;52.402;6.276;2022-09-16T02:00:03;100970.0;;;11.3;99.9
67345;BME280;54230;52.402;6.276;2022-09-16T02:05:03;100970.0;;;11.4;99.8
67345;BME280;54230;52.402;6.276;2022-09-16T02:10:05;100980.0;;;11.4;99.4
67345;BME280;54230;52.402;6.276;2022-09-16T02:15:03;100980.0;;;11.3;99.5
67345;BME280;54230;52.402;6.276;2022-09-16T02:20:02;100990.0;;;11.4;100.0
67345;BME280;54230;52.402;6.276;2022-09-16T02:25:02;100980.0;;;11.5;99.8
67345;BME280;54230;52.402;6.276;2022-09-16T02:30:02;100990.0;;;11.4;99.3
67345;BME280;54230;52.402;6.276;2022-09-16T02:35:00;100990.0;;;11.4;99.1
67345;BME280;54230;52.402;6.276;2022-09-16T02:40:03;100980.0;;;11.4;98.8
67345;BME280;54230;52.402;6.276;2022-09-16T02:45:01;100980.0;;;11.4;98.4
67345;BME280;54230;52.402;6.276;2022-09-16T02:50:04;100980.0;;;11.4;98.1
67345;BME280;54230;52.402;6.276;2022-09-16T02:55:06;100970.0;;;11.4;98.0
67345;BME280;54230;52.402;6.276;2022-09-16T03:00:00;100980.0;;;11.4;97.1
67345;BME280;54230;52.402;6.276;2022-09-16T03:05:00;100990.0;;;11.4;97.4
67345;BME280;54230;52.402;6.276;2022-09-16T03:10:00;101000.0;;;11.4;97.4
67345;BME280;54230;52.402;6.276;2022-09-16T03:15:08;100990.0;;;11.3;97.7
67345;BME280;54230;52.402;6.276;2022-09-16T03:20:04;100980.0;;;11.2;98.2
67345;BME280;54230;52.402;6.276;2022-09-16T03:25:07;100970.0;;;11.1;99.2
67345;BME280;54230;52.402;6.276;2022-09-16T03:30:02;100970.0;;;11.1;99.0
67345;BME280;54230;52.402;6.276;2022-09-16T03:35:02;100970.0;;;11.1;99.2
67345;BME280;54230;52.402;6.276;2022-09-16T03:40:04;100970.0;;;11.1;99.5
67345;BME280;54230;52.402;6.276;2022-09-16T03:45:00;100970.0;;;11.1;99.7
67345;BME280;54230;52.402;6.276;2022-09-16T03:50:00;100970.0;;;11.2;99.9
67345;BME280;54230;52.402;6.276;2022-09-16T03:55:00;100950.0;;;11.2;99.8
67345;BME280;54230;52.402;6.276;2022-09-16T04:00:00;100960.0;;;11.2;99.2
67345;BME280;54230;52.402;6.276;2022-09-16T04:05:00;100980.0;;;11.3;100.0
67345;BME280;54230;52.402;6.276;2022-09-16T04:10:00;100980.0;;;11.4;99.6
67345;BME280;54230;52.402;6.276;2022-09-16T04:15:00;101000.0;;;11.3;99.7
67345;BME280;54230;52.402;6.276;2022-09-16T04:20:00;100980.0;;;11.2;100.0
67345;BME280;54230;52.402;6.276;2022-09-16T04:25:00;100970.0;;;11.2;100.0
67345;BME280;54230;52.402;6.276;2022-09-16T04:30:00;100980.0;;;11.1;100.0
67345;BME280;54230;52.402;6.276;2022-09-16T04:35:00;100980.0;;;11.2;100.0
67345;BME280;54230;52.402;6.276;2022-09-16T04:40:00;100970.0;;;11.2;100.0
67345;BME280;54230;52.402;6.276;2022-09-16T04:45:00;100980.0;;;11.1;100.0
67345;BME280;54230;52.402;6.276;2022-09-16T04:50:00;100980.0;;;11.0;100.0
67345;BME280;54230;52.402;6.276;2022-09-16T04:55:00;100980.0;;;10.9;100.0
67345;BME280;54230;52.402;6.276;2022-09-16T05:00:00;100990.0;;;10.9;100.0
67345;BME280;54230;52.402;6.276;2022-09-16T05:05:00;100980.0;;;11.0;100.0
67345;BME280;54230;52.402;6.276;2022-09-16T05:10:00;100980.0;;;11.0;100.0
67345;BME280;54230;52.402;6.276;2022-09-16T05:15:00;100970.0;;;11.0;100.0
67345;BME280;54230;52.402;6.276;2022-09-16T05:20:00;100970.0;;;11.0;99.8
67345;BME280;54230;52.402;6.276;2022-09-16T05:25:00;100970.0;;;10.9;99.7
67345;BME280;54230;52.402;6.276;2022-09-16T05:30:00;100970.0;;;10.9;99.7
67345;BME280;54230;52.402;6.276;2022-09-16T05:35:00;101000.0;;;11.0;99.4
67345;BME280;54230;52.402;6.276;2022-09-16T05:40:00;101020.0;;;11.0;98.5
67345;BME280;54230;52.402;6.276;2022-09-16T05:45:00;101010.0;;;10.9;97.4
67345;BME280;54230;52.402;6.276;2022-09-16T05:50:00;101010.0;;;10.9;96.2
67345;BME280;54230;52.402;6.276;2022-09-16T05:55:00;101000.0;;;10.9;95.8
67345;BME280;54230;52.402;6.276;2022-09-16T06:00:00;101000.0;;;11.0;96.3
67345;BME280;54230;52.402;6.276;2022-09-16T06:05:00;101000.0;;;11.0;96.9
67345;BME280;54230;52.402;6.276;2022-09-16T06:10:00;101000.0;;;10.9;97.5
67345;BME280;54230;52.402;6.276;2022-09-16T06:15:00;100990.0;;;11.0;97.5
67345;BME280;54230;52.402;6.276;2022-09-16T06:20:00;100980.0;;;11.1;97.6
67345;BME280;54230;52.402;6.276;2022-09-16T06:25:00;100980.0;;;11.2;98.4
67345;BME280;54230;52.402;6.276;2022-09-16T06:30:00;100990.0;;;11.2;99.0
67345;BME280;54230;52.402;6.276;2022-09-16T06:35:00;101000.0;;;11.2;99.5
67345;BME280;54230;52.402;6.276;2022-09-16T06:40:00;100990.0;;;11.2;99.4
67345;BME280;54230;52.402;6.276;2022-09-16T06:45:00;100980.0;;;11.1;99.1
67345;BME280;54230;52.402;6.276;2022-09-16T06:50:00;100980.0;;;11.3;99.3
67345;BME280;54230;52.402;6.276;2022-09-16T06:55:00;100980.0;;;11.4;99.6
67345;BME280;54230;52.402;6.276;2022-09-16T07:00:00;100970.0;;;11.5;98.5
67345;BME280;54230;52.402;6.276;2022-09-16T07:05:00;100970.0;;;11.5;98.4
67345;BME280;54230;52.402;6.276;2022-09-16T07:10:00;100980.0;;;11.7;98.3
67345;BME280;54230;52.402;6.276;2022-09-16T07:15:00;100980.0;;;11.8;97.5
67345;BME280;54230;52.402;6.276;2022-09-16T07:20:00;100980.0;;;12.1;97.3
67345;BME280;54230;52.402;6.276;2022-09-16T07:25:00;100990.0;;;12.4;95.1
67345;BME280;54230;52.402;6.276;2022-09-16T07:30:00;101000.0;;;12.7;95.0
67345;BME280;54230;52.402;6.276;2022-09-16T07:35:00;101000.0;;;12.8;93.7
67345;BME280;54230;52.402;6.276;2022-09-16T07:40:00;101000.0;;;12.9;93.8
67345;BME280;54230;52.402;6.276;2022-09-16T07:45:00;101010.0;;;12.6;91.9
67345;BME280;54230;52.402;6.276;2022-09-16T07:50:00;101000.0;;;12.4;91.0
67345;BME280;54230;52.402;6.276;2022-09-16T07:55:00;101000.0;;;12.4;90.0
67345;BME280;54230;52.402;6.276;2022-09-16T08:00:00;101010.0;;;12.6;89.1
67345;BME280;54230;52.402;6.276;2022-09-16T08:05:00;101010.0;;;13.0;86.9
67345;BME280;54230;52.402;6.276;2022-09-16T08:10:00;101010.0;;;13.3;84.6
67345;BME280;54230;52.402;6.276;2022-09-16T08:15:00;101030.0;;;13.5;83.8
67345;BME280;54230;52.402;6.276;2022-09-16T08:20:00;101020.0;;;13.2;82.3
67345;BME280;54230;52.402;6.276;2022-09-16T08:25:00;101010.0;;;12.9;83.2
67345;BME280;54230;52.402;6.276;2022-09-16T08:30:00;101010.0;;;12.9;84.4
67345;BME280;54230;52.402;6.276;2022-09-16T08:35:00;101010.0;;;13.1;83.7
67345;BME280;54230;52.402;6.276;2022-09-16T08:40:00;101020.0;;;13.3;81.2
67345;BME280;54230;52.402;6.276;2022-09-16T08:45:05;101000.0;;;13.5;81.3
67345;BME280;54230;52.402;6.276;2022-09-16T08:50:05;101010.0;;;13.8;78.3
67345;BME280;54230;52.402;6.276;2022-09-16T08:55:03;101010.0;;;14.2;76.5
67345;BME280;54230;52.402;6.276;2022-09-16T09:00:03;101010.0;;;14.6;73.5
67345;BME280;54230;52.402;6.276;2022-09-16T09:05:00;101020.0;;;14.6;73.7
67345;BME280;54230;52.402;6.276;2022-09-16T09:10:05;101040.0;;;14.2;76.0
67345;BME280;54230;52.402;6.276;2022-09-16T09:15:07;101030.0;;;13.9;76.9
67345;BME280;54230;52.402;6.276;2022-09-16T09:20:08;101030.0;;;13.5;76.1
67345;BME280;54230;52.402;6.276;2022-09-16T09:25:19;101030.0;;;13.6;77.4
67345;BME280;54230;52.402;6.276;2022-09-16T09:30:07;101020.0;;;14.2;77.8
67345;BME280;54230;52.402;6.276;2022-09-16T09:35:11;101020.0;;;14.6;75.6
67345;BME280;54230;52.402;6.276;2022-09-16T09:40:06;101030.0;;;15.1;74.9
67345;BME280;54230;52.402;6.276;2022-09-16T09:45:03;101040.0;;;15.4;74.7
67345;BME280;54230;52.402;6.276;2022-09-16T09:55:07;101030.0;;;14.9;77.1
67345;BME280;54230;52.402;6.276;2022-09-16T10:00:03;101010.0;;;14.5;78.6
67345;BME280;54230;52.402;6.276;2022-09-16T10:05:00;101010.0;;;14.2;78.1
67345;BME280;54230;52.402;6.276;2022-09-16T10:10:04;101020.0;;;13.9;72.4
67345;BME280;54230;52.402;6.276;2022-09-16T10:15:01;101040.0;;;13.6;71.8
67345;BME280;54230;52.402;6.276;2022-09-16T10:20:02;101040.0;;;13.5;75.5
67345;BME280;54230;52.402;6.276;2022-09-16T10:25:01;101040.0;;;14.0;74.5
67345;BME280;54230;52.402;6.276;2022-09-16T10:30:03;101040.0;;;14.8;71.3
67345;BME280;54230;52.402;6.276;2022-09-16T10:35:05;101030.0;;;15.3;71.0
67345;BME280;54230;52.402;6.276;2022-09-16T10:40:00;101040.0;;;15.2;71.3
67345;BME280;54230;52.402;6.276;2022-09-16T10:45:07;101030.0;;;14.6;71.6
67345;BME280;54230;52.402;6.276;2022-09-16T10:50:01;101020.0;;;14.4;73.3
67345;BME280;54230;52.402;6.276;2022-09-16T10:55:11;101010.0;;;14.8;71.8
67345;BME280;54230;52.402;6.276;2022-09-16T11:00:05;101010.0;;;15.1;69.9
67345;BME280;54230;52.402;6.276;2022-09-16T11:05:02;101000.0;;;15.0;68.3
67345;BME280;54230;52.402;6.276;2022-09-16T11:10:03;101010.0;;;14.6;69.5
67345;BME280;54230;52.402;6.276;2022-09-16T11:15:08;101010.0;;;14.9;70.3
67345;BME280;54230;52.402;6.276;2022-09-16T11:20:19;101030.0;;;15.5;70.4
67345;BME280;54230;52.402;6.276;2022-09-16T11:25:16;101020.0;;;14.4;75.7
67345;BME280;54230;52.402;6.276;2022-09-16T11:30:06;101030.0;;;14.2;75.9
67345;BME280;54230;52.402;6.276;2022-09-16T11:35:15;101030.0;;;14.8;74.1
67345;BME280;54230;52.402;6.276;2022-09-16T11:40:10;101020.0;;;15.3;71.2
67345;BME280;54230;52.402;6.276;2022-09-16T11:45:11;101010.0;;;15.5;70.3
67345;BME280;54230;52.402;6.276;2022-09-16T11:50:07;101020.0;;;15.4;69.9
67345;BME280;54230;52.402;6.276;2022-09-16T11:55:17;101010.0;;;15.4;68.8
67345;BME280;54230;52.402;6.276;2022-09-16T12:00:03;101000.0;;;15.8;70.2
67345;BME280;54230;52.402;6.276;2022-09-16T12:05:05;100990.0;;;16.3;69.4
67345;BME280;54230;52.402;6.276;2022-09-16T12:10:04;100990.0;;;16.4;66.7
67345;BME280;54230;52.402;6.276;2022-09-16T12:15:02;100980.0;;;16.5;62.3
67345;BME280;54230;52.402;6.276;2022-09-16T12:20:05;100980.0;;;17.0;57.0
67345;BME280;54230;52.402;6.276;2022-09-16T12:25:02;100990.0;;;17.0;59.7
67345;BME280;54230;52.402;6.276;2022-09-16T12:30:04;100990.0;;;16.4;62.8
67345;BME280;54230;52.402;6.276;2022-09-16T12:35:03;100990.0;;;16.1;57.2
67345;BME280;54230;52.402;6.276;2022-09-16T12:40:00;100990.0;;;16.9;57.4
67345;BME280;54230;52.402;6.276;2022-09-16T12:45:07;100990.0;;;17.2;53.8
67345;BME280;54230;52.402;6.276;2022-09-16T12:50:17;100980.0;;;17.5;53.6
67345;BME280;54230;52.402;6.276;2022-09-16T12:55:17;101010.0;;;18.1;53.5
67345;BME280;54230;52.402;6.276;2022-09-16T13:00:09;100990.0;;;17.5;51.2
67345;BME280;54230;52.402;6.276;2022-09-16T13:05:08;100990.0;;;18.0;53.1
67345;BME280;54230;52.402;6.276;2022-09-16T13:10:02;101000.0;;;17.7;54.8
67345;BME280;54230;52.402;6.276;2022-09-16T13:15:02;101000.0;;;16.7;52.9
67345;BME280;54230;52.402;6.276;2022-09-16T13:20:02;101000.0;;;17.1;52.4
67345;BME280;54230;52.402;6.276;2022-09-16T13:25:07;100980.0;;;17.9;51.9
67345;BME280;54230;52.402;6.276;2022-09-16T13:30:14;100980.0;;;17.9;50.1
67345;BME280;54230;52.402;6.276;2022-09-16T13:35:01;100990.0;;;18.5;48.2
67345;BME280;54230;52.402;6.276;2022-09-16T13:40:15;100980.0;;;19.0;49.6
67345;BME280;54230;52.402;6.276;2022-09-16T13:45:00;100970.0;;;18.3;47.4
67345;BME280;54230;52.402;6.276;2022-09-16T13:50:05;100980.0;;;18.0;48.4
67345;BME280;54230;52.402;6.276;2022-09-16T13:55:01;100980.0;;;16.9;48.8
67345;BME280;54230;52.402;6.276;2022-09-16T14:00:10;100960.0;;;17.5;48.3
67345;BME280;54230;52.402;6.276;2022-09-16T14:05:10;100960.0;;;18.1;48.3
67345;BME280;54230;52.402;6.276;2022-09-16T14:10:07;100970.0;;;18.3;47.7
67345;BME280;54230;52.402;6.276;2022-09-16T14:15:00;100970.0;;;18.2;48.3
67345;BME280;54230;52.402;6.276;2022-09-16T14:20:00;100980.0;;;18.3;49.3
67345;BME280;54230;52.402;6.276;2022-09-16T14:25:00;100980.0;;;17.4;52.5
67345;BME280;54230;52.402;6.276;2022-09-16T14:30:02;100990.0;;;17.6;52.6
67345;BME280;54230;52.402;6.276;2022-09-16T14:35:03;100980.0;;;18.1;51.8
67345;BME280;54230;52.402;6.276;2022-09-16T14:40:03;100980.0;;;17.9;51.8
67345;BME280;54230;52.402;6.276;2022-09-16T14:45:00;100970.0;;;18.1;51.1
67345;BME280;54230;52.402;6.276;2022-09-16T14:50:02;100970.0;;;18.3;49.4
67345;BME280;54230;52.402;6.276;2022-09-16T14:55:00;100940.0;;;18.9;51.6
67345;BME280;54230;52.402;6.276;2022-09-16T15:00:02;100990.0;;;18.7;51.9
67345;BME280;54230;52.402;6.276;2022-09-16T15:05:09;100990.0;;;18.3;50.7
67345;BME280;54230;52.402;6.276;2022-09-16T15:10:02;100980.0;;;18.5;49.2
67345;BME280;54230;52.402;6.276;2022-09-16T15:15:03;100980.0;;;18.5;49.8
67345;BME280;54230;52.402;6.276;2022-09-16T15:20:00;100980.0;;;19.0;46.0
67345;BME280;54230;52.402;6.276;2022-09-16T15:25:00;100970.0;;;18.5;48.3
67345;BME280;54230;52.402;6.276;2022-09-16T15:30:00;100970.0;;;17.7;52.1
67345;BME280;54230;52.402;6.276;2022-09-16T15:35:09;100990.0;;;18.6;46.4
67345;BME280;54230;52.402;6.276;2022-09-16T15:40:09;100980.0;;;19.4;44.2
67345;BME280;54230;52.402;6.276;2022-09-16T15:45:01;100950.0;;;19.6;41.4
67345;BME280;54230;52.402;6.276;2022-09-16T15:50:03;100970.0;;;19.9;40.9
67345;BME280;54230;52.402;6.276;2022-09-16T15:55:02;100970.0;;;19.8;43.9
67345;BME280;54230;52.402;6.276;2022-09-16T16:00:02;100960.0;;;20.4;43.7
67345;BME280;54230;52.402;6.276;2022-09-16T16:05:04;100980.0;;;19.4;42.3
67345;BME280;54230;52.402;6.276;2022-09-16T16:10:10;101000.0;;;18.0;45.3
67345;BME280;54230;52.402;6.276;2022-09-16T16:15:00;100980.0;;;17.6;45.8
67345;BME280;54230;52.402;6.276;2022-09-16T16:20:00;100970.0;;;18.6;44.1
67345;BME280;54230;52.402;6.276;2022-09-16T16:25:00;100980.0;;;18.9;42.1
67345;BME280;54230;52.402;6.276;2022-09-16T16:30:00;100980.0;;;18.5;40.6
67345;BME280;54230;52.402;6.276;2022-09-16T16:35:00;100980.0;;;18.4;40.8
67345;BME280;54230;52.402;6.276;2022-09-16T16:40:00;101000.0;;;17.6;44.4
67345;BME280;54230;52.402;6.276;2022-09-16T16:45:00;101020.0;;;16.6;54.4
67345;BME280;54230;52.402;6.276;2022-09-16T16:50:00;101040.0;;;16.2;59.6
67345;BME280;54230;52.402;6.276;2022-09-16T16:55:00;101040.0;;;15.3;64.1
67345;BME280;54230;52.402;6.276;2022-09-16T17:00:00;101030.0;;;14.7;68.9
67345;BME280;54230;52.402;6.276;2022-09-16T17:05:00;101030.0;;;14.3;71.2
67345;BME280;54230;52.402;6.276;2022-09-16T17:10:00;101030.0;;;13.9;70.0
67345;BME280;54230;52.402;6.276;2022-09-16T17:15:00;101020.0;;;13.8;70.9
67345;BME280;54230;52.402;6.276;2022-09-16T17:20:00;101020.0;;;13.7;71.5
67345;BME280;54230;52.402;6.276;2022-09-16T17:25:00;101040.0;;;13.6;71.7
67345;BME280;54230;52.402;6.276;2022-09-16T17:30:00;101040.0;;;13.6;72.1
67345;BME280;54230;52.402;6.276;2022-09-16T17:35:00;101050.0;;;13.6;72.5
67345;BME280;54230;52.402;6.276;2022-09-16T17:40:00;101040.0;;;13.6;72.6
67345;BME280;54230;52.402;6.276;2022-09-16T17:45:00;101040.0;;;13.5;72.9
67345;BME280;54230;52.402;6.276;2022-09-16T17:50:00;101050.0;;;13.5;73.9
67345;BME280;54230;52.402;6.276;2022-09-16T17:55:00;101060.0;;;13.0;77.9
67345;BME280;54230;52.402;6.276;2022-09-16T18:00:00;101040.0;;;12.7;80.3
67345;BME280;54230;52.402;6.276;2022-09-16T18:05:00;101040.0;;;12.7;80.7
67345;BME280;54230;52.402;6.276;2022-09-16T18:10:00;101060.0;;;12.6;79.7
67345;BME280;54230;52.402;6.276;2022-09-16T18:15:00;101050.0;;;12.6;79.9
67345;BME280;54230;52.402;6.276;2022-09-16T18:20:00;101060.0;;;12.6;79.5
67345;BME280;54230;52.402;6.276;2022-09-16T18:25:00;101060.0;;;12.6;79.1
67345;BME280;54230;52.402;6.276;2022-09-16T18:30:00;101080.0;;;12.6;79.0
67345;BME280;54230;52.402;6.276;2022-09-16T18:35:00;101080.0;;;12.5;79.8
67345;BME280;54230;52.402;6.276;2022-09-16T18:40:00;101090.0;;;12.6;80.3
67345;BME280;54230;52.402;6.276;2022-09-16T18:45:00;101080.0;;;12.5;80.8
67345;BME280;54230;52.402;6.276;2022-09-16T18:50:00;101100.0;;;12.6;82.3
67345;BME280;54230;52.402;6.276;2022-09-16T18:55:00;101100.0;;;12.3;84.8
67345;BME280;54230;52.402;6.276;2022-09-16T19:00:00;101090.0;;;12.2;86.4
67345;BME280;54230;52.402;6.276;2022-09-16T19:05:00;101100.0;;;12.2;87.9
67345;BME280;54230;52.402;6.276;2022-09-16T19:10:00;101100.0;;;12.1;87.8
67345;BME280;54230;52.402;6.276;2022-09-16T19:15:00;101100.0;;;12.2;86.7
67345;BME280;54230;52.402;6.276;2022-09-16T19:20:00;101110.0;;;12.3;86.4
67345;BME280;54230;52.402;6.276;2022-09-16T19:25:00;101120.0;;;12.2;85.6
67345;BME280;54230;52.402;6.276;2022-09-16T19:30:00;101120.0;;;12.3;84.6
67345;BME280;54230;52.402;6.276;2022-09-16T19:35:00;101120.0;;;12.3;85.2
67345;BME280;54230;52.402;6.276;2022-09-16T19:40:00;101120.0;;;12.1;85.3
67345;BME280;54230;52.402;6.276;2022-09-16T19:45:00;101120.0;;;12.2;85.3
67345;BME280;54230;52.402;6.276;2022-09-16T19:50:00;101120.0;;;12.1;85.1
67345;BME280;54230;52.402;6.276;2022-09-16T19:55:00;101120.0;;;12.0;86.2
67345;BME280;54230;52.402;6.276;2022-09-16T20:00:00;101130.0;;;12.0;86.6
67345;BME280;54230;52.402;6.276;2022-09-16T20:05:00;101130.0;;;12.0;86.9
67345;BME280;54230;52.402;6.276;2022-09-16T20:10:00;101130.0;;;11.9;86.7
67345;BME280;54230;52.402;6.276;2022-09-16T20:15:00;101140.0;;;11.8;88.1
67345;BME280;54230;52.402;6.276;2022-09-16T20:20:00;101130.0;;;11.6;89.9
67345;BME280;54230;52.402;6.276;2022-09-16T20:25:00;101130.0;;;11.6;90.8
67345;BME280;54230;52.402;6.276;2022-09-16T20:30:00;101140.0;;;11.6;91.6
67345;BME280;54230;52.402;6.276;2022-09-16T20:35:00;101150.0;;;11.5;92.3
67345;BME280;54230;52.402;6.276;2022-09-16T20:40:00;101150.0;;;11.5;92.4
67345;BME280;54230;52.402;6.276;2022-09-16T20:45:00;101150.0;;;11.4;92.5
67345;BME280;54230;52.402;6.276;2022-09-16T20:50:00;101170.0;;;11.5;92.9
67345;BME280;54230;52.402;6.276;2022-09-16T20:55:00;101170.0;;;11.5;92.3
67345;BME280;54230;52.402;6.276;2022-09-16T21:00:00;101160.0;;;11.5;93.1
67345;BME280;54230;52.402;6.276;2022-09-16T21:05:00;101160.0;;;11.5;92.7
67345;BME280;54230;52.402;6.276;2022-09-16T21:10:00;101150.0;;;11.5;93.1
67345;BME280;54230;52.402;6.276;2022-09-16T21:15:00;101180.0;;;11.5;93.5
67345;BME280;54230;52.402;6.276;2022-09-16T21:20:01;101150.0;;;11.2;93.6
67345;BME280;54230;52.402;6.276;2022-09-16T21:25:00;101170.0;;;11.3;92.8
67345;BME280;54230;52.402;6.276;2022-09-16T21:30:00;101160.0;;;11.2;93.1
67345;BME280;54230;52.402;6.276;2022-09-16T21:35:00;101170.0;;;11.2;92.4
67345;BME280;54230;52.402;6.276;2022-09-16T21:40:00;101160.0;;;11.3;92.7
67345;BME280;54230;52.402;6.276;2022-09-16T21:45:00;101170.0;;;11.2;93.2
67345;BME280;54230;52.402;6.276;2022-09-16T21:50:00;101170.0;;;11.1;93.5
67345;BME280;54230;52.402;6.276;2022-09-16T21:55:00;101170.0;;;11.1;93.6
67345;BME280;54230;52.402;6.276;2022-09-16T22:00:00;101180.0;;;11.0;93.8
67345;BME280;54230;52.402;6.276;2022-09-16T22:05:00;101180.0;;;10.9;94.1
67345;BME280;54230;52.402;6.276;2022-09-16T22:10:00;101170.0;;;10.8;94.7
67345;BME280;54230;52.402;6.276;2022-09-16T22:15:00;101190.0;;;10.9;94.9
67345;BME280;54230;52.402;6.276;2022-09-16T22:20:00;101190.0;;;10.9;95.3
67345;BME280;54230;52.402;6.276;2022-09-16T22:25:00;101190.0;;;11.0;95.6
67345;BME280;54230;52.402;6.276;2022-09-16T22:30:00;101180.0;;;11.0;95.4
67345;BME280;54230;52.402;6.276;2022-09-16T22:35:00;101180.0;;;11.0;95.4
67345;BME280;54230;52.402;6.276;2022-09-16T22:40:00;101180.0;;;11.0;95.5
67345;BME280;54230;52.402;6.276;2022-09-16T22:45:00;101180.0;;;10.9;95.7
67345;BME280;54230;52.402;6.276;2022-09-16T22:50:00;101170.0;;;10.8;95.9
67345;BME280;54230;52.402;6.276;2022-09-16T22:55:00;101180.0;;;10.9;95.4
67345;BME280;54230;52.402;6.276;2022-09-16T23:00:00;101180.0;;;10.9;95.7
67345;BME280;54230;52.402;6.276;2022-09-16T23:05:00;101180.0;;;10.8;95.6
67345;BME280;54230;52.402;6.276;2022-09-16T23:10:00;101170.0;;;10.7;95.7
67345;BME280;54230;52.402;6.276;2022-09-16T23:15:00;101180.0;;;10.7;95.6
67345;BME280;54230;52.402;6.276;2022-09-16T23:20:00;101170.0;;;10.7;95.8
67345;BME280;54230;52.402;6.276;2022-09-16T23:25:00;101180.0;;;10.7;95.2
67345;BME280;54230;52.402;6.276;2022-09-16T23:30:00;101180.0;;;10.7;94.5
67345;BME280;54230;52.402;6.276;2022-09-16T23:35:00;101180.0;;;10.8;94.7
67345;BME280;54230;52.402;6.276;2022-09-16T23:40:00;101180.0;;;10.8;93.4
67345;BME280;54230;52.402;6.276;2022-09-16T23:45:00;101190.0;;;10.8;93.0
67345;BME280;54230;52.402;6.276;2022-09-16T23:50:00;101190.0;;;10.7;92.5
67345;BME280;54230;52.402;6.276;2022-09-16T23:55:00;101180.0;;;10.7;92.3
